sensor_id;sensor_type;location;lat;lon;timestamp;P1;durP1;ratioP1;P2;durP2;ratioP2
77984;SDS011;67177;47.240;-1.546;2023-06-04T00:00:36;4.20;;;1.60;;
77984;SDS011;67177;47.240;-1.546;2023-06-04T00:03:01;4.20;;;1.70;;
77984;SDS011;67177;47.240;-1.546;2023-06-04T00:05:27;4.40;;;1.70;;
77984;SDS011;67177;47.240;-1.546;2023-06-04T00:07:52;4.00;;;1.40;;
77984;SDS011;67177;47.240;-1.546;2023-06-04T00:10:18;4.90;;;1.83;;
77984;SDS011;67177;47.240;-1.546;2023-06-04T00:12:44;4.80;;;1.80;;
77984;SDS011;67177;47.240;-1.546;2023-06-04T00:15:09;4.17;;;1.50;;
77984;SDS011;67177;47.240;-1.546;2023-06-04T00:17:35;5.00;;;1.88;;
77984;SDS011;67177;47.240;-1.546;2023-06-04T00:20:01;4.70;;;1.83;;
77984;SDS011;67177;47.240;-1.546;2023-06-04T00:22:27;4.82;;;1.67;;
77984;SDS011;67177;47.240;-1.546;2023-06-04T00:24:53;5.03;;;1.90;;
77984;SDS011;67177;47.240;-1.546;2023-06-04T00:27:18;4.30;;;1.70;;
77984;SDS011;67177;47.240;-1.546;2023-06-04T00:29:44;4.63;;;1.70;;
77984;SDS011;67177;47.240;-1.546;2023-06-04T00:32:10;4.60;;;1.53;;
77984;SDS011;67177;47.240;-1.546;2023-06-04T00:34:35;4.93;;;1.83;;
77984;SDS011;67177;47.240;-1.546;2023-06-04T00:37:01;4.43;;;1.63;;
77984;SDS011;67177;47.240;-1.546;2023-06-04T00:39:27;4.38;;;1.65;;
77984;SDS011;67177;47.240;-1.546;2023-06-04T00:41:52;4.40;;;1.60;;
77984;SDS011;67177;47.240;-1.546;2023-06-04T00:44:18;4.20;;;1.52;;
77984;SDS011;67177;47.240;-1.546;2023-06-04T00:46:46;4.25;;;1.50;;
77984;SDS011;67177;47.240;-1.546;2023-06-04T00:49:14;4.50;;;1.60;;
77984;SDS011;67177;47.240;-1.546;2023-06-04T00:51:40;3.92;;;1.40;;
77984;SDS011;67177;47.240;-1.546;2023-06-04T00:54:06;3.55;;;1.30;;
77984;SDS011;67177;47.240;-1.546;2023-06-04T00:56:34;4.07;;;1.20;;
77984;SDS011;67177;47.240;-1.546;2023-06-04T00:59:02;3.85;;;1.30;;
77984;SDS011;67177;47.240;-1.546;2023-06-04T01:04:18;3.30;;;1.10;;
77984;SDS011;67177;47.240;-1.546;2023-06-04T01:06:50;3.53;;;1.20;;
77984;SDS011;67177;47.240;-1.546;2023-06-04T01:09:21;4.23;;;1.27;;
77984;SDS011;67177;47.240;-1.546;2023-06-04T01:11:47;3.90;;;1.15;;
77984;SDS011;67177;47.240;-1.546;2023-06-04T01:14:13;3.90;;;1.50;;
77984;SDS011;67177;47.240;-1.546;2023-06-04T01:16:44;4.27;;;1.57;;
77984;SDS011;67177;47.240;-1.546;2023-06-04T01:28:04;4.00;;;1.33;;
77984;SDS011;67177;47.240;-1.546;2023-06-04T01:30:34;4.27;;;1.60;;
77984;SDS011;67177;47.240;-1.546;2023-06-04T01:33:02;4.40;;;1.70;;
77984;SDS011;67177;47.240;-1.546;2023-06-04T01:35:28;5.15;;;1.90;;
77984;SDS011;67177;47.240;-1.546;2023-06-04T01:37:57;5.65;;;2.00;;
77984;SDS011;67177;47.240;-1.546;2023-06-04T01:40:23;5.37;;;2.00;;
77984;SDS011;67177;47.240;-1.546;2023-06-04T01:42:50;4.65;;;1.77;;
77984;SDS011;67177;47.240;-1.546;2023-06-04T01:45:16;4.70;;;1.83;;
77984;SDS011;67177;47.240;-1.546;2023-06-04T01:47:42;4.88;;;1.90;;
77984;SDS011;67177;47.240;-1.546;2023-06-04T01:50:07;4.07;;;1.40;;
77984;SDS011;67177;47.240;-1.546;2023-06-04T01:52:37;4.50;;;1.83;;
77984;SDS011;67177;47.240;-1.546;2023-06-04T01:55:04;4.53;;;1.65;;
77984;SDS011;67177;47.240;-1.546;2023-06-04T01:57:32;4.60;;;1.75;;
77984;SDS011;67177;47.240;-1.546;2023-06-04T01:59:58;4.65;;;2.10;;
77984;SDS011;67177;47.240;-1.546;2023-06-04T02:02:24;5.03;;;1.90;;
77984;SDS011;67177;47.240;-1.546;2023-06-04T02:04:50;5.03;;;2.03;;
77984;SDS011;67177;47.240;-1.546;2023-06-04T02:07:17;4.45;;;1.75;;
77984;SDS011;67177;47.240;-1.546;2023-06-04T02:09:45;4.37;;;1.90;;
77984;SDS011;67177;47.240;-1.546;2023-06-04T02:12:11;4.72;;;1.95;;
77984;SDS011;67177;47.240;-1.546;2023-06-04T02:14:37;4.70;;;1.98;;
77984;SDS011;67177;47.240;-1.546;2023-06-04T02:17:03;4.93;;;2.10;;
77984;SDS011;67177;47.240;-1.546;2023-06-04T02:19:30;4.18;;;1.67;;
77984;SDS011;67177;47.240;-1.546;2023-06-04T02:21:58;4.65;;;1.90;;
77984;SDS011;67177;47.240;-1.546;2023-06-04T02:24:24;5.10;;;1.87;;
77984;SDS011;67177;47.240;-1.546;2023-06-04T02:26:50;4.78;;;1.77;;
77984;SDS011;67177;47.240;-1.546;2023-06-04T02:29:16;4.45;;;1.77;;
77984;SDS011;67177;47.240;-1.546;2023-06-04T02:31:41;4.60;;;1.80;;
77984;SDS011;67177;47.240;-1.546;2023-06-04T02:34:07;5.47;;;1.93;;
77984;SDS011;67177;47.240;-1.546;2023-06-04T02:36:33;4.72;;;1.80;;
77984;SDS011;67177;47.240;-1.546;2023-06-04T02:38:59;5.55;;;2.17;;
77984;SDS011;67177;47.240;-1.546;2023-06-04T02:41:26;4.87;;;1.83;;
77984;SDS011;67177;47.240;-1.546;2023-06-04T02:43:52;4.57;;;1.48;;
77984;SDS011;67177;47.240;-1.546;2023-06-04T02:46:17;4.07;;;1.43;;
77984;SDS011;67177;47.240;-1.546;2023-06-04T02:48:43;3.85;;;1.20;;
77984;SDS011;67177;47.240;-1.546;2023-06-04T02:51:08;4.20;;;1.60;;
77984;SDS011;67177;47.240;-1.546;2023-06-04T02:53:36;5.20;;;1.80;;
77984;SDS011;67177;47.240;-1.546;2023-06-04T02:56:02;4.93;;;1.83;;
77984;SDS011;67177;47.240;-1.546;2023-06-04T02:58:27;5.23;;;1.67;;
77984;SDS011;67177;47.240;-1.546;2023-06-04T03:00:54;4.43;;;1.70;;
77984;SDS011;67177;47.240;-1.546;2023-06-04T03:03:20;4.30;;;1.60;;
77984;SDS011;67177;47.240;-1.546;2023-06-04T03:05:46;4.30;;;1.75;;
77984;SDS011;67177;47.240;-1.546;2023-06-04T03:08:13;4.20;;;1.60;;
77984;SDS011;67177;47.240;-1.546;2023-06-04T03:10:38;4.65;;;1.92;;
77984;SDS011;67177;47.240;-1.546;2023-06-04T03:13:04;3.80;;;1.50;;
77984;SDS011;67177;47.240;-1.546;2023-06-04T03:15:30;5.07;;;1.60;;
77984;SDS011;67177;47.240;-1.546;2023-06-04T03:17:55;4.13;;;1.63;;
77984;SDS011;67177;47.240;-1.546;2023-06-04T03:20:22;4.25;;;1.67;;
77984;SDS011;67177;47.240;-1.546;2023-06-04T03:22:49;5.32;;;2.40;;
77984;SDS011;67177;47.240;-1.546;2023-06-04T03:25:15;5.75;;;1.85;;
77984;SDS011;67177;47.240;-1.546;2023-06-04T03:27:41;4.20;;;1.50;;
77984;SDS011;67177;47.240;-1.546;2023-06-04T03:30:07;5.20;;;1.70;;
77984;SDS011;67177;47.240;-1.546;2023-06-04T03:32:33;5.20;;;1.60;;
77984;SDS011;67177;47.240;-1.546;2023-06-04T03:34:59;4.43;;;1.70;;
77984;SDS011;67177;47.240;-1.546;2023-06-04T03:37:25;4.40;;;1.80;;
77984;SDS011;67177;47.240;-1.546;2023-06-04T03:39:51;3.83;;;1.40;;
77984;SDS011;67177;47.240;-1.546;2023-06-04T03:42:17;3.87;;;1.40;;
77984;SDS011;67177;47.240;-1.546;2023-06-04T03:44:43;4.72;;;1.70;;
77984;SDS011;67177;47.240;-1.546;2023-06-04T03:47:09;3.77;;;1.40;;
77984;SDS011;67177;47.240;-1.546;2023-06-04T03:49:35;4.00;;;1.40;;
77984;SDS011;67177;47.240;-1.546;2023-06-04T03:52:00;4.60;;;1.80;;
77984;SDS011;67177;47.240;-1.546;2023-06-04T03:54:26;4.50;;;1.60;;
77984;SDS011;67177;47.240;-1.546;2023-06-04T03:56:52;4.33;;;1.63;;
77984;SDS011;67177;47.240;-1.546;2023-06-04T03:59:17;3.88;;;1.40;;
77984;SDS011;67177;47.240;-1.546;2023-06-04T04:01:43;4.50;;;1.77;;
77984;SDS011;67177;47.240;-1.546;2023-06-04T04:04:09;3.93;;;1.40;;
77984;SDS011;67177;47.240;-1.546;2023-06-04T04:06:34;4.20;;;1.60;;
77984;SDS011;67177;47.240;-1.546;2023-06-04T04:09:00;4.33;;;1.47;;
77984;SDS011;67177;47.240;-1.546;2023-06-04T04:11:27;4.50;;;1.60;;
77984;SDS011;67177;47.240;-1.546;2023-06-04T04:13:52;4.90;;;1.70;;
77984;SDS011;67177;47.240;-1.546;2023-06-04T04:16:18;4.50;;;1.60;;
77984;SDS011;67177;47.240;-1.546;2023-06-04T04:18:44;3.67;;;1.20;;
77984;SDS011;67177;47.240;-1.546;2023-06-04T04:21:10;3.75;;;1.42;;
77984;SDS011;67177;47.240;-1.546;2023-06-04T04:23:37;3.67;;;1.30;;
77984;SDS011;67177;47.240;-1.546;2023-06-04T04:26:06;3.28;;;1.17;;
77984;SDS011;67177;47.240;-1.546;2023-06-04T04:28:32;3.93;;;1.30;;
77984;SDS011;67177;47.240;-1.546;2023-06-04T04:30:59;3.67;;;1.20;;
77984;SDS011;67177;47.240;-1.546;2023-06-04T04:33:27;3.63;;;1.30;;
77984;SDS011;67177;47.240;-1.546;2023-06-04T04:35:57;3.90;;;1.30;;
77984;SDS011;67177;47.240;-1.546;2023-06-04T04:38:24;4.75;;;1.50;;
77984;SDS011;67177;47.240;-1.546;2023-06-04T04:40:50;4.40;;;1.60;;
77984;SDS011;67177;47.240;-1.546;2023-06-04T04:43:19;4.38;;;1.50;;
77984;SDS011;67177;47.240;-1.546;2023-06-04T04:45:58;5.47;;;1.60;;
77984;SDS011;67177;47.240;-1.546;2023-06-04T04:48:24;4.57;;;1.40;;
77984;SDS011;67177;47.240;-1.546;2023-06-04T04:50:50;4.18;;;1.27;;
77984;SDS011;67177;47.240;-1.546;2023-06-04T04:53:16;4.10;;;1.40;;
77984;SDS011;67177;47.240;-1.546;2023-06-04T04:55:42;4.30;;;1.60;;
77984;SDS011;67177;47.240;-1.546;2023-06-04T04:58:08;4.97;;;1.30;;
77984;SDS011;67177;47.240;-1.546;2023-06-04T05:00:34;4.22;;;1.63;;
77984;SDS011;67177;47.240;-1.546;2023-06-04T05:02:59;4.07;;;1.43;;
77984;SDS011;67177;47.240;-1.546;2023-06-04T05:05:25;3.83;;;1.50;;
77984;SDS011;67177;47.240;-1.546;2023-06-04T05:07:51;4.20;;;1.40;;
77984;SDS011;67177;47.240;-1.546;2023-06-04T05:10:16;4.63;;;1.70;;
77984;SDS011;67177;47.240;-1.546;2023-06-04T05:12:52;4.75;;;1.55;;
77984;SDS011;67177;47.240;-1.546;2023-06-04T05:15:18;4.18;;;1.40;;
77984;SDS011;67177;47.240;-1.546;2023-06-04T05:17:44;4.33;;;1.53;;
77984;SDS011;67177;47.240;-1.546;2023-06-04T05:20:11;4.45;;;1.25;;
77984;SDS011;67177;47.240;-1.546;2023-06-04T05:22:38;4.32;;;1.60;;
77984;SDS011;67177;47.240;-1.546;2023-06-04T05:25:04;5.07;;;1.50;;
77984;SDS011;67177;47.240;-1.546;2023-06-04T05:27:31;4.78;;;1.50;;
77984;SDS011;67177;47.240;-1.546;2023-06-04T05:29:57;5.27;;;1.70;;
77984;SDS011;67177;47.240;-1.546;2023-06-04T05:32:23;4.72;;;1.75;;
77984;SDS011;67177;47.240;-1.546;2023-06-04T05:34:53;5.72;;;1.73;;
77984;SDS011;67177;47.240;-1.546;2023-06-04T05:37:22;4.93;;;1.77;;
77984;SDS011;67177;47.240;-1.546;2023-06-04T05:39:55;4.30;;;1.40;;
77984;SDS011;67177;47.240;-1.546;2023-06-04T05:42:22;4.72;;;1.58;;
77984;SDS011;67177;47.240;-1.546;2023-06-04T05:44:48;3.92;;;1.20;;
77984;SDS011;67177;47.240;-1.546;2023-06-04T05:47:15;4.32;;;1.73;;
77984;SDS011;67177;47.240;-1.546;2023-06-04T05:49:44;5.72;;;1.70;;
77984;SDS011;67177;47.240;-1.546;2023-06-04T05:52:10;5.23;;;1.80;;
77984;SDS011;67177;47.240;-1.546;2023-06-04T05:54:36;5.93;;;2.20;;
77984;SDS011;67177;47.240;-1.546;2023-06-04T05:57:04;5.13;;;1.80;;
77984;SDS011;67177;47.240;-1.546;2023-06-04T05:59:30;4.90;;;1.60;;
77984;SDS011;67177;47.240;-1.546;2023-06-04T06:01:56;5.30;;;2.13;;
77984;SDS011;67177;47.240;-1.546;2023-06-04T06:04:22;6.32;;;2.05;;
77984;SDS011;67177;47.240;-1.546;2023-06-04T06:06:48;5.10;;;2.10;;
77984;SDS011;67177;47.240;-1.546;2023-06-04T06:09:14;5.57;;;2.10;;
77984;SDS011;67177;47.240;-1.546;2023-06-04T06:11:41;4.95;;;1.67;;
77984;SDS011;67177;47.240;-1.546;2023-06-04T06:14:06;4.17;;;1.63;;
77984;SDS011;67177;47.240;-1.546;2023-06-04T06:16:32;5.25;;;1.80;;
77984;SDS011;67177;47.240;-1.546;2023-06-04T06:18:58;4.47;;;1.85;;
77984;SDS011;67177;47.240;-1.546;2023-06-04T06:21:25;5.63;;;1.55;;
77984;SDS011;67177;47.240;-1.546;2023-06-04T06:23:51;6.97;;;1.70;;
77984;SDS011;67177;47.240;-1.546;2023-06-04T06:26:17;5.22;;;1.70;;
77984;SDS011;67177;47.240;-1.546;2023-06-04T06:28:43;5.25;;;1.60;;
77984;SDS011;67177;47.240;-1.546;2023-06-04T06:31:09;5.13;;;1.40;;
77984;SDS011;67177;47.240;-1.546;2023-06-04T06:33:35;5.25;;;1.90;;
77984;SDS011;67177;47.240;-1.546;2023-06-04T06:36:05;4.95;;;1.75;;
77984;SDS011;67177;47.240;-1.546;2023-06-04T06:38:36;4.32;;;1.80;;
77984;SDS011;67177;47.240;-1.546;2023-06-04T06:41:02;4.93;;;1.77;;
77984;SDS011;67177;47.240;-1.546;2023-06-04T06:43:27;4.13;;;1.60;;
77984;SDS011;67177;47.240;-1.546;2023-06-04T06:45:53;5.05;;;1.70;;
77984;SDS011;67177;47.240;-1.546;2023-06-04T06:48:19;5.22;;;1.70;;
77984;SDS011;67177;47.240;-1.546;2023-06-04T06:50:45;4.30;;;1.43;;
77984;SDS011;67177;47.240;-1.546;2023-06-04T06:53:11;4.57;;;1.63;;
77984;SDS011;67177;47.240;-1.546;2023-06-04T06:55:36;5.47;;;1.60;;
77984;SDS011;67177;47.240;-1.546;2023-06-04T06:58:02;5.47;;;1.70;;
77984;SDS011;67177;47.240;-1.546;2023-06-04T07:00:28;4.30;;;1.40;;
77984;SDS011;67177;47.240;-1.546;2023-06-04T07:02:53;4.63;;;1.80;;
77984;SDS011;67177;47.240;-1.546;2023-06-04T07:05:19;5.07;;;1.70;;
77984;SDS011;67177;47.240;-1.546;2023-06-04T07:07:45;5.43;;;2.00;;
77984;SDS011;67177;47.240;-1.546;2023-06-04T07:10:11;6.13;;;2.07;;
77984;SDS011;67177;47.240;-1.546;2023-06-04T07:12:38;6.13;;;2.30;;
77984;SDS011;67177;47.240;-1.546;2023-06-04T07:15:04;5.40;;;2.00;;
77984;SDS011;67177;47.240;-1.546;2023-06-04T07:17:31;5.07;;;1.90;;
77984;SDS011;67177;47.240;-1.546;2023-06-04T07:19:57;5.13;;;1.97;;
77984;SDS011;67177;47.240;-1.546;2023-06-04T07:22:23;5.20;;;1.83;;
77984;SDS011;67177;47.240;-1.546;2023-06-04T07:24:48;4.60;;;1.90;;
77984;SDS011;67177;47.240;-1.546;2023-06-04T07:27:15;5.38;;;1.80;;
77984;SDS011;67177;47.240;-1.546;2023-06-04T07:29:42;4.80;;;1.80;;
77984;SDS011;67177;47.240;-1.546;2023-06-04T07:32:09;4.82;;;1.85;;
77984;SDS011;67177;47.240;-1.546;2023-06-04T07:34:35;4.47;;;1.60;;
77984;SDS011;67177;47.240;-1.546;2023-06-04T07:37:02;4.72;;;1.80;;
77984;SDS011;67177;47.240;-1.546;2023-06-04T07:39:28;4.97;;;1.92;;
77984;SDS011;67177;47.240;-1.546;2023-06-04T07:41:53;5.20;;;1.83;;
77984;SDS011;67177;47.240;-1.546;2023-06-04T07:44:19;4.47;;;1.67;;
77984;SDS011;67177;47.240;-1.546;2023-06-04T07:46:45;6.65;;;1.80;;
77984;SDS011;67177;47.240;-1.546;2023-06-04T07:49:11;4.93;;;1.80;;
77984;SDS011;67177;47.240;-1.546;2023-06-04T07:51:36;4.82;;;1.70;;
77984;SDS011;67177;47.240;-1.546;2023-06-04T07:54:02;4.27;;;1.50;;
77984;SDS011;67177;47.240;-1.546;2023-06-04T07:56:28;4.97;;;1.60;;
77984;SDS011;67177;47.240;-1.546;2023-06-04T07:58:54;4.78;;;1.60;;
77984;SDS011;67177;47.240;-1.546;2023-06-04T08:01:20;4.20;;;1.50;;
77984;SDS011;67177;47.240;-1.546;2023-06-04T08:03:46;5.38;;;1.60;;
77984;SDS011;67177;47.240;-1.546;2023-06-04T08:06:12;4.90;;;1.67;;
77984;SDS011;67177;47.240;-1.546;2023-06-04T08:08:43;5.70;;;1.75;;
77984;SDS011;67177;47.240;-1.546;2023-06-04T08:11:13;6.13;;;2.10;;
77984;SDS011;67177;47.240;-1.546;2023-06-04T08:13:40;4.88;;;1.98;;
77984;SDS011;67177;47.240;-1.546;2023-06-04T08:16:06;5.00;;;2.05;;
77984;SDS011;67177;47.240;-1.546;2023-06-04T08:18:32;5.78;;;2.10;;
77984;SDS011;67177;47.240;-1.546;2023-06-04T08:20:58;4.80;;;2.00;;
77984;SDS011;67177;47.240;-1.546;2023-06-04T08:23:23;5.18;;;1.90;;
77984;SDS011;67177;47.240;-1.546;2023-06-04T08:25:49;4.30;;;1.50;;
77984;SDS011;67177;47.240;-1.546;2023-06-04T08:28:15;4.90;;;1.80;;
77984;SDS011;67177;47.240;-1.546;2023-06-04T08:30:44;4.80;;;1.50;;
77984;SDS011;67177;47.240;-1.546;2023-06-04T08:33:10;4.67;;;1.30;;
77984;SDS011;67177;47.240;-1.546;2023-06-04T08:35:36;3.67;;;1.30;;
77984;SDS011;67177;47.240;-1.546;2023-06-04T08:38:02;4.20;;;1.50;;
77984;SDS011;67177;47.240;-1.546;2023-06-04T08:40:27;4.32;;;1.58;;
77984;SDS011;67177;47.240;-1.546;2023-06-04T08:42:55;4.50;;;1.50;;
77984;SDS011;67177;47.240;-1.546;2023-06-04T08:45:24;5.03;;;1.60;;
77984;SDS011;67177;47.240;-1.546;2023-06-04T08:47:51;5.15;;;1.77;;
77984;SDS011;67177;47.240;-1.546;2023-06-04T08:50:17;4.95;;;1.90;;
77984;SDS011;67177;47.240;-1.546;2023-06-04T08:52:45;4.93;;;1.63;;
77984;SDS011;67177;47.240;-1.546;2023-06-04T08:55:11;3.97;;;1.40;;
77984;SDS011;67177;47.240;-1.546;2023-06-04T08:57:39;4.85;;;1.60;;
77984;SDS011;67177;47.240;-1.546;2023-06-04T09:00:05;4.72;;;2.00;;
77984;SDS011;67177;47.240;-1.546;2023-06-04T09:02:33;4.88;;;1.60;;
77984;SDS011;67177;47.240;-1.546;2023-06-04T09:05:06;4.60;;;1.50;;
77984;SDS011;67177;47.240;-1.546;2023-06-04T09:07:36;5.15;;;1.90;;
77984;SDS011;67177;47.240;-1.546;2023-06-04T09:10:07;5.45;;;1.83;;
77984;SDS011;67177;47.240;-1.546;2023-06-04T09:12:36;4.75;;;1.80;;
77984;SDS011;67177;47.240;-1.546;2023-06-04T09:15:09;4.65;;;1.98;;
77984;SDS011;67177;47.240;-1.546;2023-06-04T09:17:36;4.83;;;1.97;;
77984;SDS011;67177;47.240;-1.546;2023-06-04T09:20:01;4.78;;;1.80;;
77984;SDS011;67177;47.240;-1.546;2023-06-04T09:22:31;5.45;;;1.80;;
77984;SDS011;67177;47.240;-1.546;2023-06-04T09:25:01;3.95;;;1.42;;
77984;SDS011;67177;47.240;-1.546;2023-06-04T09:27:37;3.90;;;1.52;;
77984;SDS011;67177;47.240;-1.546;2023-06-04T09:30:07;5.00;;;1.73;;
77984;SDS011;67177;47.240;-1.546;2023-06-04T09:32:36;5.07;;;1.63;;
77984;SDS011;67177;47.240;-1.546;2023-06-04T09:35:17;6.03;;;2.00;;
77984;SDS011;67177;47.240;-1.546;2023-06-04T09:37:54;5.20;;;2.00;;
77984;SDS011;67177;47.240;-1.546;2023-06-04T09:40:20;4.30;;;1.80;;
77984;SDS011;67177;47.240;-1.546;2023-06-04T09:42:50;5.38;;;1.75;;
77984;SDS011;67177;47.240;-1.546;2023-06-04T09:47:55;4.47;;;1.77;;
77984;SDS011;67177;47.240;-1.546;2023-06-04T09:50:27;4.80;;;2.00;;
77984;SDS011;67177;47.240;-1.546;2023-06-04T09:52:55;7.35;;;2.25;;
77984;SDS011;67177;47.240;-1.546;2023-06-04T09:55:22;4.75;;;1.83;;
77984;SDS011;67177;47.240;-1.546;2023-06-04T09:57:48;5.07;;;2.22;;
77984;SDS011;67177;47.240;-1.546;2023-06-04T10:00:16;5.57;;;2.43;;
77984;SDS011;67177;47.240;-1.546;2023-06-04T10:02:43;5.32;;;2.40;;
77984;SDS011;67177;47.240;-1.546;2023-06-04T10:05:11;6.00;;;2.53;;
77984;SDS011;67177;47.240;-1.546;2023-06-04T10:07:39;5.97;;;2.30;;
77984;SDS011;67177;47.240;-1.546;2023-06-04T10:10:11;5.45;;;2.25;;
77984;SDS011;67177;47.240;-1.546;2023-06-04T10:12:46;5.45;;;2.55;;
77984;SDS011;67177;47.240;-1.546;2023-06-04T10:15:15;5.18;;;2.50;;
77984;SDS011;67177;47.240;-1.546;2023-06-04T10:17:42;5.35;;;2.42;;
77984;SDS011;67177;47.240;-1.546;2023-06-04T10:20:09;6.57;;;3.00;;
77984;SDS011;67177;47.240;-1.546;2023-06-04T10:22:36;5.57;;;2.55;;
77984;SDS011;67177;47.240;-1.546;2023-06-04T10:25:03;5.85;;;2.72;;
77984;SDS011;67177;47.240;-1.546;2023-06-04T10:27:32;5.07;;;2.47;;
77984;SDS011;67177;47.240;-1.546;2023-06-04T10:30:01;5.75;;;2.80;;
77984;SDS011;67177;47.240;-1.546;2023-06-04T10:32:28;5.97;;;2.60;;
77984;SDS011;67177;47.240;-1.546;2023-06-04T10:34:54;5.55;;;2.70;;
77984;SDS011;67177;47.240;-1.546;2023-06-04T10:37:22;5.45;;;2.40;;
77984;SDS011;67177;47.240;-1.546;2023-06-04T10:39:53;5.85;;;2.42;;
77984;SDS011;67177;47.240;-1.546;2023-06-04T10:42:20;5.43;;;2.40;;
77984;SDS011;67177;47.240;-1.546;2023-06-04T10:44:47;5.28;;;2.35;;
77984;SDS011;67177;47.240;-1.546;2023-06-04T10:47:27;5.43;;;2.55;;
77984;SDS011;67177;47.240;-1.546;2023-06-04T10:50:06;4.93;;;2.17;;
77984;SDS011;67177;47.240;-1.546;2023-06-04T10:52:34;6.10;;;2.80;;
77984;SDS011;67177;47.240;-1.546;2023-06-04T10:55:04;6.18;;;2.58;;
77984;SDS011;67177;47.240;-1.546;2023-06-04T10:57:31;5.68;;;2.75;;
77984;SDS011;67177;47.240;-1.546;2023-06-04T10:59:58;5.20;;;2.50;;
77984;SDS011;67177;47.240;-1.546;2023-06-04T11:02:25;5.80;;;2.80;;
77984;SDS011;67177;47.240;-1.546;2023-06-04T11:07:40;6.20;;;3.00;;
77984;SDS011;67177;47.240;-1.546;2023-06-04T11:10:10;6.07;;;2.97;;
77984;SDS011;67177;47.240;-1.546;2023-06-04T11:12:43;5.57;;;2.78;;
77984;SDS011;67177;47.240;-1.546;2023-06-04T11:15:09;6.55;;;2.83;;
77984;SDS011;67177;47.240;-1.546;2023-06-04T11:17:35;6.35;;;2.88;;
77984;SDS011;67177;47.240;-1.546;2023-06-04T11:20:01;6.63;;;2.70;;
77984;SDS011;67177;47.240;-1.546;2023-06-04T11:22:27;5.75;;;2.60;;
77984;SDS011;67177;47.240;-1.546;2023-06-04T11:24:57;7.45;;;3.47;;
77984;SDS011;67177;47.240;-1.546;2023-06-04T11:27:25;6.63;;;3.47;;
77984;SDS011;67177;47.240;-1.546;2023-06-04T11:29:51;6.95;;;3.47;;
77984;SDS011;67177;47.240;-1.546;2023-06-04T11:32:20;8.05;;;4.07;;
77984;SDS011;67177;47.240;-1.546;2023-06-04T11:34:49;6.75;;;3.20;;
77984;SDS011;67177;47.240;-1.546;2023-06-04T11:37:15;7.60;;;3.70;;
77984;SDS011;67177;47.240;-1.546;2023-06-04T11:39:41;6.22;;;3.00;;
77984;SDS011;67177;47.240;-1.546;2023-06-04T11:42:09;6.28;;;2.80;;
77984;SDS011;67177;47.240;-1.546;2023-06-04T11:44:35;6.03;;;2.90;;
77984;SDS011;67177;47.240;-1.546;2023-06-04T11:47:04;6.47;;;3.07;;
77984;SDS011;67177;47.240;-1.546;2023-06-04T11:49:31;6.03;;;2.50;;
77984;SDS011;67177;47.240;-1.546;2023-06-04T11:51:59;5.43;;;2.60;;
77984;SDS011;67177;47.240;-1.546;2023-06-04T11:54:25;5.60;;;2.87;;
77984;SDS011;67177;47.240;-1.546;2023-06-04T11:56:51;5.30;;;2.35;;
77984;SDS011;67177;47.240;-1.546;2023-06-04T11:59:18;5.25;;;2.50;;
77984;SDS011;67177;47.240;-1.546;2023-06-04T12:01:45;6.47;;;3.00;;
77984;SDS011;67177;47.240;-1.546;2023-06-04T12:04:15;5.88;;;2.83;;
77984;SDS011;67177;47.240;-1.546;2023-06-04T12:09:24;5.60;;;2.88;;
77984;SDS011;67177;47.240;-1.546;2023-06-04T12:11:57;6.85;;;2.92;;
77984;SDS011;67177;47.240;-1.546;2023-06-04T12:14:25;6.88;;;2.90;;
77984;SDS011;67177;47.240;-1.546;2023-06-04T12:16:54;5.70;;;2.67;;
77984;SDS011;67177;47.240;-1.546;2023-06-04T12:19:23;5.75;;;2.60;;
77984;SDS011;67177;47.240;-1.546;2023-06-04T12:24:33;5.53;;;2.30;;
77984;SDS011;67177;47.240;-1.546;2023-06-04T12:27:02;4.88;;;2.20;;
77984;SDS011;67177;47.240;-1.546;2023-06-04T12:29:31;5.20;;;2.17;;
77984;SDS011;67177;47.240;-1.546;2023-06-04T12:32:04;5.00;;;2.20;;
77984;SDS011;67177;47.240;-1.546;2023-06-04T12:34:36;5.60;;;2.42;;
77984;SDS011;67177;47.240;-1.546;2023-06-04T12:37:02;4.80;;;2.08;;
77984;SDS011;67177;47.240;-1.546;2023-06-04T12:39:30;4.78;;;2.22;;
77984;SDS011;67177;47.240;-1.546;2023-06-04T12:42:01;4.82;;;2.20;;
77984;SDS011;67177;47.240;-1.546;2023-06-04T12:44:28;5.32;;;2.30;;
77984;SDS011;67177;47.240;-1.546;2023-06-04T12:46:54;5.32;;;2.50;;
77984;SDS011;67177;47.240;-1.546;2023-06-04T12:49:19;5.30;;;2.17;;
77984;SDS011;67177;47.240;-1.546;2023-06-04T12:51:46;5.17;;;2.50;;
77984;SDS011;67177;47.240;-1.546;2023-06-04T12:54:11;5.45;;;2.47;;
77984;SDS011;67177;47.240;-1.546;2023-06-04T12:56:37;4.87;;;2.03;;
77984;SDS011;67177;47.240;-1.546;2023-06-04T12:59:04;4.53;;;2.00;;
77984;SDS011;67177;47.240;-1.546;2023-06-04T13:01:30;4.53;;;1.92;;
77984;SDS011;67177;47.240;-1.546;2023-06-04T13:03:56;4.43;;;1.80;;
77984;SDS011;67177;47.240;-1.546;2023-06-04T13:06:21;4.60;;;2.10;;
77984;SDS011;67177;47.240;-1.546;2023-06-04T13:08:47;6.25;;;2.40;;
77984;SDS011;67177;47.240;-1.546;2023-06-04T13:11:13;5.55;;;2.55;;
77984;SDS011;67177;47.240;-1.546;2023-06-04T13:13:38;5.50;;;2.60;;
77984;SDS011;67177;47.240;-1.546;2023-06-04T13:16:04;4.80;;;2.30;;
77984;SDS011;67177;47.240;-1.546;2023-06-04T13:18:30;5.68;;;2.47;;
77984;SDS011;67177;47.240;-1.546;2023-06-04T13:20:56;5.77;;;2.53;;
77984;SDS011;67177;47.240;-1.546;2023-06-04T13:23:22;5.13;;;2.50;;
77984;SDS011;67177;47.240;-1.546;2023-06-04T13:25:48;5.20;;;2.22;;
77984;SDS011;67177;47.240;-1.546;2023-06-04T13:28:13;5.28;;;2.58;;
77984;SDS011;67177;47.240;-1.546;2023-06-04T13:30:40;4.95;;;2.33;;
77984;SDS011;67177;47.240;-1.546;2023-06-04T13:33:06;5.20;;;2.27;;
77984;SDS011;67177;47.240;-1.546;2023-06-04T13:35:32;5.60;;;2.40;;
77984;SDS011;67177;47.240;-1.546;2023-06-04T13:37:57;5.03;;;2.30;;
77984;SDS011;67177;47.240;-1.546;2023-06-04T13:40:23;5.40;;;2.60;;
77984;SDS011;67177;47.240;-1.546;2023-06-04T13:42:49;5.88;;;2.85;;
77984;SDS011;67177;47.240;-1.546;2023-06-04T13:45:15;5.45;;;2.55;;
77984;SDS011;67177;47.240;-1.546;2023-06-04T13:47:45;5.20;;;2.40;;
77984;SDS011;67177;47.240;-1.546;2023-06-04T13:50:13;7.60;;;2.78;;
77984;SDS011;67177;47.240;-1.546;2023-06-04T13:52:39;5.50;;;2.40;;
77984;SDS011;67177;47.240;-1.546;2023-06-04T13:55:05;6.22;;;2.90;;
77984;SDS011;67177;47.240;-1.546;2023-06-04T13:57:31;5.68;;;2.90;;
77984;SDS011;67177;47.240;-1.546;2023-06-04T13:59:56;5.73;;;2.80;;
77984;SDS011;67177;47.240;-1.546;2023-06-04T14:02:22;5.20;;;2.70;;
77984;SDS011;67177;47.240;-1.546;2023-06-04T14:04:49;5.13;;;2.27;;
77984;SDS011;67177;47.240;-1.546;2023-06-04T14:07:15;6.03;;;2.58;;
77984;SDS011;67177;47.240;-1.546;2023-06-04T14:09:41;5.10;;;2.45;;
77984;SDS011;67177;47.240;-1.546;2023-06-04T14:12:07;5.70;;;2.40;;
77984;SDS011;67177;47.240;-1.546;2023-06-04T14:14:33;5.07;;;2.40;;
77984;SDS011;67177;47.240;-1.546;2023-06-04T14:17:02;4.90;;;2.10;;
77984;SDS011;67177;47.240;-1.546;2023-06-04T14:19:28;4.70;;;2.20;;
77984;SDS011;67177;47.240;-1.546;2023-06-04T14:21:54;5.70;;;2.10;;
77984;SDS011;67177;47.240;-1.546;2023-06-04T14:24:20;4.72;;;2.10;;
77984;SDS011;67177;47.240;-1.546;2023-06-04T14:26:46;6.57;;;2.63;;
77984;SDS011;67177;47.240;-1.546;2023-06-04T14:29:12;5.90;;;2.50;;
77984;SDS011;67177;47.240;-1.546;2023-06-04T14:31:38;4.97;;;2.42;;
77984;SDS011;67177;47.240;-1.546;2023-06-04T14:34:04;4.50;;;2.00;;
77984;SDS011;67177;47.240;-1.546;2023-06-04T14:36:32;6.43;;;2.33;;
77984;SDS011;67177;47.240;-1.546;2023-06-04T14:38:57;5.93;;;2.50;;
77984;SDS011;67177;47.240;-1.546;2023-06-04T14:41:23;5.82;;;2.90;;
77984;SDS011;67177;47.240;-1.546;2023-06-04T14:43:49;7.07;;;3.17;;
77984;SDS011;67177;47.240;-1.546;2023-06-04T14:46:15;6.35;;;3.20;;
77984;SDS011;67177;47.240;-1.546;2023-06-04T14:48:41;7.15;;;3.35;;
77984;SDS011;67177;47.240;-1.546;2023-06-04T14:51:07;6.23;;;2.90;;
77984;SDS011;67177;47.240;-1.546;2023-06-04T14:53:33;5.65;;;3.03;;